sensor_id;sensor_type;location;lat;lon;timestamp;P1;durP1;ratioP1;P2;durP2;ratioP2
22260;SDS011;11299;43.202;27.920;2022-08-19T00:00:15;18.73;;;14.75;;
22260;SDS011;11299;43.202;27.920;2022-08-19T00:02:42;17.17;;;13.93;;
22260;SDS011;11299;43.202;27.920;2022-08-19T00:05:09;16.70;;;14.65;;
22260;SDS011;11299;43.202;27.920;2022-08-19T00:07:36;17.48;;;14.95;;
22260;SDS011;11299;43.202;27.920;2022-08-19T00:10:04;18.45;;;14.90;;
22260;SDS011;11299;43.202;27.920;2022-08-19T00:12:31;19.75;;;14.65;;
22260;SDS011;11299;43.202;27.920;2022-08-19T00:14:56;19.60;;;14.13;;
22260;SDS011;11299;43.202;27.920;2022-08-19T00:17:22;23.85;;;14.98;;
22260;SDS011;11299;43.202;27.920;2022-08-19T00:19:48;19.65;;;14.93;;
22260;SDS011;11299;43.202;27.920;2022-08-19T00:22:13;18.58;;;14.48;;
22260;SDS011;11299;43.202;27.920;2022-08-19T00:24:39;17.48;;;14.57;;
22260;SDS011;11299;43.202;27.920;2022-08-19T00:27:06;16.10;;;13.80;;
22260;SDS011;11299;43.202;27.920;2022-08-19T00:29:32;18.00;;;14.23;;
22260;SDS011;11299;43.202;27.920;2022-08-19T00:31:57;18.02;;;14.18;;
22260;SDS011;11299;43.202;27.920;2022-08-19T00:34:25;18.77;;;13.63;;
22260;SDS011;11299;43.202;27.920;2022-08-19T00:36:53;17.20;;;13.48;;
22260;SDS011;11299;43.202;27.920;2022-08-19T00:39:19;15.75;;;13.20;;
22260;SDS011;11299;43.202;27.920;2022-08-19T00:41:45;18.05;;;14.38;;
22260;SDS011;11299;43.202;27.920;2022-08-19T00:46:47;14.50;;;12.35;;
22260;SDS011;11299;43.202;27.920;2022-08-19T00:49:16;19.33;;;13.90;;
22260;SDS011;11299;43.202;27.920;2022-08-19T00:51:51;16.00;;;13.02;;
22260;SDS011;11299;43.202;27.920;2022-08-19T00:54:19;16.23;;;12.95;;
22260;SDS011;11299;43.202;27.920;2022-08-19T00:56:46;16.20;;;13.02;;
22260;SDS011;11299;43.202;27.920;2022-08-19T00:59:13;18.08;;;13.52;;
22260;SDS011;11299;43.202;27.920;2022-08-19T01:01:40;15.60;;;13.68;;
22260;SDS011;11299;43.202;27.920;2022-08-19T01:04:07;19.95;;;14.65;;
22260;SDS011;11299;43.202;27.920;2022-08-19T01:06:33;20.42;;;14.70;;
22260;SDS011;11299;43.202;27.920;2022-08-19T01:09:02;19.00;;;14.85;;
22260;SDS011;11299;43.202;27.920;2022-08-19T01:11:30;17.67;;;14.38;;
22260;SDS011;11299;43.202;27.920;2022-08-19T01:13:58;23.10;;;14.35;;
22260;SDS011;11299;43.202;27.920;2022-08-19T01:16:24;19.33;;;14.82;;
22260;SDS011;11299;43.202;27.920;2022-08-19T01:18:53;22.58;;;14.65;;
22260;SDS011;11299;43.202;27.920;2022-08-19T01:22:01;19.13;;;15.20;;
22260;SDS011;11299;43.202;27.920;2022-08-19T01:24:09;20.67;;;15.40;;
22260;SDS011;11299;43.202;27.920;2022-08-19T01:26:40;20.83;;;15.77;;
22260;SDS011;11299;43.202;27.920;2022-08-19T01:29:08;23.13;;;16.13;;
22260;SDS011;11299;43.202;27.920;2022-08-19T01:31:35;19.38;;;16.52;;
22260;SDS011;11299;43.202;27.920;2022-08-19T01:34:02;23.95;;;17.80;;
22260;SDS011;11299;43.202;27.920;2022-08-19T01:36:33;25.48;;;18.38;;
22260;SDS011;11299;43.202;27.920;2022-08-19T01:39:08;23.10;;;18.02;;
22260;SDS011;11299;43.202;27.920;2022-08-19T01:41:36;23.00;;;17.85;;
22260;SDS011;11299;43.202;27.920;2022-08-19T01:44:04;24.95;;;17.75;;
22260;SDS011;11299;43.202;27.920;2022-08-19T01:46:31;23.77;;;17.95;;
22260;SDS011;11299;43.202;27.920;2022-08-19T01:48:57;23.73;;;17.65;;
22260;SDS011;11299;43.202;27.920;2022-08-19T01:51:23;23.65;;;18.17;;
22260;SDS011;11299;43.202;27.920;2022-08-19T01:53:49;22.25;;;17.58;;
22260;SDS011;11299;43.202;27.920;2022-08-19T01:56:16;24.30;;;17.67;;
22260;SDS011;11299;43.202;27.920;2022-08-19T02:01:41;27.20;;;18.50;;
22260;SDS011;11299;43.202;27.920;2022-08-19T02:04:06;24.98;;;17.08;;
22260;SDS011;11299;43.202;27.920;2022-08-19T02:06:32;20.40;;;17.33;;
22260;SDS011;11299;43.202;27.920;2022-08-19T02:08:58;22.17;;;18.52;;
22260;SDS011;11299;43.202;27.920;2022-08-19T02:11:25;20.63;;;16.45;;
22260;SDS011;11299;43.202;27.920;2022-08-19T02:13:53;23.45;;;16.58;;
22260;SDS011;11299;43.202;27.920;2022-08-19T02:16:20;21.67;;;14.88;;
22260;SDS011;11299;43.202;27.920;2022-08-19T02:18:46;21.20;;;14.68;;
22260;SDS011;11299;43.202;27.920;2022-08-19T02:21:19;19.38;;;14.07;;
22260;SDS011;11299;43.202;27.920;2022-08-19T02:23:46;18.08;;;14.88;;
22260;SDS011;11299;43.202;27.920;2022-08-19T02:26:12;21.17;;;15.48;;
22260;SDS011;11299;43.202;27.920;2022-08-19T02:28:39;20.80;;;15.48;;
22260;SDS011;11299;43.202;27.920;2022-08-19T02:31:13;24.60;;;16.38;;
22260;SDS011;11299;43.202;27.920;2022-08-19T02:33:41;23.60;;;16.00;;
22260;SDS011;11299;43.202;27.920;2022-08-19T02:36:07;19.08;;;16.23;;
22260;SDS011;11299;43.202;27.920;2022-08-19T02:38:33;24.10;;;16.77;;
22260;SDS011;11299;43.202;27.920;2022-08-19T02:41:07;23.30;;;16.88;;
22260;SDS011;11299;43.202;27.920;2022-08-19T02:43:36;23.55;;;17.10;;
22260;SDS011;11299;43.202;27.920;2022-08-19T02:46:20;23.40;;;18.10;;
22260;SDS011;11299;43.202;27.920;2022-08-19T02:48:50;25.98;;;17.77;;
22260;SDS011;11299;43.202;27.920;2022-08-19T02:51:19;26.30;;;19.60;;
22260;SDS011;11299;43.202;27.920;2022-08-19T02:53:47;24.67;;;20.63;;
22260;SDS011;11299;43.202;27.920;2022-08-19T02:56:13;25.30;;;20.05;;
22260;SDS011;11299;43.202;27.920;2022-08-19T02:58:40;26.15;;;20.83;;
22260;SDS011;11299;43.202;27.920;2022-08-19T03:01:05;26.70;;;19.98;;
22260;SDS011;11299;43.202;27.920;2022-08-19T03:03:31;28.27;;;21.08;;
22260;SDS011;11299;43.202;27.920;2022-08-19T03:06:13;26.50;;;20.42;;
22260;SDS011;11299;43.202;27.920;2022-08-19T03:08:41;26.40;;;21.38;;
22260;SDS011;11299;43.202;27.920;2022-08-19T03:11:14;26.17;;;19.88;;
22260;SDS011;11299;43.202;27.920;2022-08-19T03:13:42;33.40;;;19.98;;
22260;SDS011;11299;43.202;27.920;2022-08-19T03:16:08;23.48;;;19.77;;
22260;SDS011;11299;43.202;27.920;2022-08-19T03:18:34;27.25;;;18.83;;
22260;SDS011;11299;43.202;27.920;2022-08-19T03:20:59;25.45;;;20.08;;
22260;SDS011;11299;43.202;27.920;2022-08-19T03:23:25;23.45;;;18.23;;
22260;SDS011;11299;43.202;27.920;2022-08-19T03:25:51;23.15;;;18.48;;
22260;SDS011;11299;43.202;27.920;2022-08-19T03:28:18;26.30;;;18.95;;
22260;SDS011;11299;43.202;27.920;2022-08-19T03:30:58;25.52;;;18.50;;
22260;SDS011;11299;43.202;27.920;2022-08-19T03:33:30;29.00;;;18.17;;
22260;SDS011;11299;43.202;27.920;2022-08-19T03:36:00;24.40;;;18.63;;
22260;SDS011;11299;43.202;27.920;2022-08-19T03:38:29;22.33;;;17.40;;
22260;SDS011;11299;43.202;27.920;2022-08-19T03:40:55;27.08;;;18.35;;
22260;SDS011;11299;43.202;27.920;2022-08-19T03:43:20;22.25;;;17.67;;
22260;SDS011;11299;43.202;27.920;2022-08-19T03:45:46;22.60;;;17.48;;
22260;SDS011;11299;43.202;27.920;2022-08-19T03:48:13;24.08;;;16.85;;
22260;SDS011;11299;43.202;27.920;2022-08-19T03:50:41;25.17;;;15.50;;
22260;SDS011;11299;43.202;27.920;2022-08-19T03:53:07;20.60;;;15.65;;
22260;SDS011;11299;43.202;27.920;2022-08-19T03:55:34;21.25;;;15.43;;
22260;SDS011;11299;43.202;27.920;2022-08-19T03:58:04;23.02;;;15.65;;
22260;SDS011;11299;43.202;27.920;2022-08-19T04:00:29;30.20;;;18.42;;
22260;SDS011;11299;43.202;27.920;2022-08-19T04:02:55;35.85;;;30.00;;
22260;SDS011;11299;43.202;27.920;2022-08-19T04:05:20;32.35;;;26.50;;
22260;SDS011;11299;43.202;27.920;2022-08-19T04:07:46;38.42;;;26.67;;
22260;SDS011;11299;43.202;27.920;2022-08-19T04:10:11;30.38;;;22.23;;
22260;SDS011;11299;43.202;27.920;2022-08-19T04:12:37;28.13;;;19.88;;
22260;SDS011;11299;43.202;27.920;2022-08-19T04:15:03;27.48;;;18.70;;
22260;SDS011;11299;43.202;27.920;2022-08-19T04:17:31;25.27;;;17.77;;
22260;SDS011;11299;43.202;27.920;2022-08-19T04:19:57;24.40;;;15.73;;
22260;SDS011;11299;43.202;27.920;2022-08-19T04:22:23;22.27;;;15.55;;
22260;SDS011;11299;43.202;27.920;2022-08-19T04:24:48;23.55;;;16.42;;
22260;SDS011;11299;43.202;27.920;2022-08-19T04:27:14;20.83;;;16.30;;
22260;SDS011;11299;43.202;27.920;2022-08-19T04:29:41;24.83;;;15.63;;
22260;SDS011;11299;43.202;27.920;2022-08-19T04:32:06;21.70;;;16.20;;
22260;SDS011;11299;43.202;27.920;2022-08-19T04:34:32;25.92;;;16.63;;
22260;SDS011;11299;43.202;27.920;2022-08-19T04:36:58;20.15;;;16.27;;
22260;SDS011;11299;43.202;27.920;2022-08-19T04:39:26;24.08;;;17.52;;
22260;SDS011;11299;43.202;27.920;2022-08-19T04:42:13;24.63;;;18.23;;
22260;SDS011;11299;43.202;27.920;2022-08-19T04:44:57;23.30;;;18.50;;
22260;SDS011;11299;43.202;27.920;2022-08-19T04:47:23;22.73;;;18.90;;
22260;SDS011;11299;43.202;27.920;2022-08-19T04:49:49;22.77;;;17.45;;
22260;SDS011;11299;43.202;27.920;2022-08-19T04:52:15;25.30;;;18.20;;
22260;SDS011;11299;43.202;27.920;2022-08-19T04:54:40;22.65;;;17.90;;
22260;SDS011;11299;43.202;27.920;2022-08-19T04:57:07;22.67;;;16.77;;
22260;SDS011;11299;43.202;27.920;2022-08-19T04:59:34;27.13;;;17.98;;
22260;SDS011;11299;43.202;27.920;2022-08-19T05:02:01;26.88;;;17.63;;
22260;SDS011;11299;43.202;27.920;2022-08-19T05:04:27;17.85;;;15.95;;
22260;SDS011;11299;43.202;27.920;2022-08-19T05:06:56;27.10;;;16.90;;
22260;SDS011;11299;43.202;27.920;2022-08-19T05:09:22;24.35;;;17.08;;
22260;SDS011;11299;43.202;27.920;2022-08-19T05:11:47;19.30;;;16.30;;
22260;SDS011;11299;43.202;27.920;2022-08-19T05:14:15;20.83;;;15.98;;
22260;SDS011;11299;43.202;27.920;2022-08-19T05:16:41;21.95;;;16.00;;
22260;SDS011;11299;43.202;27.920;2022-08-19T05:19:06;20.10;;;14.10;;
22260;SDS011;11299;43.202;27.920;2022-08-19T05:21:51;17.23;;;14.40;;
22260;SDS011;11299;43.202;27.920;2022-08-19T05:24:35;20.92;;;14.32;;
22260;SDS011;11299;43.202;27.920;2022-08-19T05:27:02;14.25;;;12.85;;
22260;SDS011;11299;43.202;27.920;2022-08-19T05:29:30;16.52;;;13.05;;
22260;SDS011;11299;43.202;27.920;2022-08-19T05:31:59;15.55;;;11.80;;
22260;SDS011;11299;43.202;27.920;2022-08-19T05:34:26;15.82;;;12.13;;
22260;SDS011;11299;43.202;27.920;2022-08-19T05:36:56;18.75;;;13.02;;
22260;SDS011;11299;43.202;27.920;2022-08-19T05:39:27;14.18;;;10.82;;
22260;SDS011;11299;43.202;27.920;2022-08-19T05:41:56;13.55;;;11.02;;
22260;SDS011;11299;43.202;27.920;2022-08-19T05:44:24;17.55;;;10.75;;
22260;SDS011;11299;43.202;27.920;2022-08-19T05:46:51;12.73;;;10.82;;
22260;SDS011;11299;43.202;27.920;2022-08-19T05:49:18;15.18;;;11.35;;
22260;SDS011;11299;43.202;27.920;2022-08-19T05:51:45;13.20;;;10.68;;
22260;SDS011;11299;43.202;27.920;2022-08-19T05:54:10;14.98;;;10.10;;
22260;SDS011;11299;43.202;27.920;2022-08-19T05:56:38;15.25;;;10.45;;
22260;SDS011;11299;43.202;27.920;2022-08-19T05:59:06;13.32;;;10.10;;
22260;SDS011;11299;43.202;27.920;2022-08-19T06:01:35;13.18;;;9.73;;
22260;SDS011;11299;43.202;27.920;2022-08-19T06:04:02;15.90;;;10.50;;
22260;SDS011;11299;43.202;27.920;2022-08-19T06:06:28;13.13;;;9.35;;
22260;SDS011;11299;43.202;27.920;2022-08-19T06:08:54;11.95;;;10.20;;
22260;SDS011;11299;43.202;27.920;2022-08-19T06:11:34;13.43;;;10.10;;
22260;SDS011;11299;43.202;27.920;2022-08-19T06:14:04;11.88;;;9.57;;
22260;SDS011;11299;43.202;27.920;2022-08-19T06:16:34;11.73;;;9.75;;
22260;SDS011;11299;43.202;27.920;2022-08-19T06:19:04;10.45;;;9.23;;
22260;SDS011;11299;43.202;27.920;2022-08-19T06:21:32;11.18;;;8.98;;
22260;SDS011;11299;43.202;27.920;2022-08-19T06:23:58;14.77;;;9.13;;
22260;SDS011;11299;43.202;27.920;2022-08-19T06:26:24;11.90;;;9.13;;
22260;SDS011;11299;43.202;27.920;2022-08-19T06:28:51;10.07;;;9.07;;
22260;SDS011;11299;43.202;27.920;2022-08-19T06:31:18;9.70;;;8.70;;
22260;SDS011;11299;43.202;27.920;2022-08-19T06:33:46;13.20;;;8.90;;
22260;SDS011;11299;43.202;27.920;2022-08-19T06:36:21;10.00;;;9.00;;
22260;SDS011;11299;43.202;27.920;2022-08-19T06:38:47;12.90;;;9.32;;
22260;SDS011;11299;43.202;27.920;2022-08-19T06:41:12;13.27;;;9.20;;
22260;SDS011;11299;43.202;27.920;2022-08-19T06:43:38;10.93;;;8.88;;
22260;SDS011;11299;43.202;27.920;2022-08-19T06:46:08;10.93;;;9.88;;
22260;SDS011;11299;43.202;27.920;2022-08-19T06:48:36;10.45;;;8.80;;
22260;SDS011;11299;43.202;27.920;2022-08-19T06:51:02;12.90;;;9.65;;
22260;SDS011;11299;43.202;27.920;2022-08-19T06:53:30;15.52;;;8.50;;
22260;SDS011;11299;43.202;27.920;2022-08-19T06:55:56;14.80;;;8.45;;
22260;SDS011;11299;43.202;27.920;2022-08-19T06:58:25;10.10;;;8.15;;
22260;SDS011;11299;43.202;27.920;2022-08-19T07:00:51;9.73;;;7.95;;
22260;SDS011;11299;43.202;27.920;2022-08-19T07:03:16;10.48;;;8.55;;
22260;SDS011;11299;43.202;27.920;2022-08-19T07:05:42;11.55;;;8.50;;
22260;SDS011;11299;43.202;27.920;2022-08-19T07:08:08;10.55;;;8.60;;
22260;SDS011;11299;43.202;27.920;2022-08-19T07:10:34;9.07;;;8.18;;
22260;SDS011;11299;43.202;27.920;2022-08-19T07:13:01;12.05;;;8.40;;
22260;SDS011;11299;43.202;27.920;2022-08-19T07:15:28;12.13;;;8.85;;
22260;SDS011;11299;43.202;27.920;2022-08-19T07:17:54;10.82;;;8.52;;
22260;SDS011;11299;43.202;27.920;2022-08-19T07:20:20;12.15;;;8.55;;
22260;SDS011;11299;43.202;27.920;2022-08-19T07:22:45;13.25;;;8.35;;
22260;SDS011;11299;43.202;27.920;2022-08-19T07:25:11;9.73;;;8.15;;
22260;SDS011;11299;43.202;27.920;2022-08-19T07:27:38;12.40;;;8.05;;
22260;SDS011;11299;43.202;27.920;2022-08-19T07:30:04;11.18;;;8.85;;
22260;SDS011;11299;43.202;27.920;2022-08-19T07:32:30;12.52;;;7.95;;
22260;SDS011;11299;43.202;27.920;2022-08-19T07:34:56;11.70;;;8.27;;
22260;SDS011;11299;43.202;27.920;2022-08-19T07:37:22;11.00;;;8.77;;
22260;SDS011;11299;43.202;27.920;2022-08-19T07:39:51;11.93;;;8.35;;
22260;SDS011;11299;43.202;27.920;2022-08-19T07:42:16;12.98;;;8.30;;
22260;SDS011;11299;43.202;27.920;2022-08-19T07:44:43;8.85;;;7.78;;
22260;SDS011;11299;43.202;27.920;2022-08-19T07:47:08;10.32;;;8.15;;
22260;SDS011;11299;43.202;27.920;2022-08-19T07:49:34;11.02;;;7.85;;
22260;SDS011;11299;43.202;27.920;2022-08-19T07:52:01;9.13;;;7.85;;
22260;SDS011;11299;43.202;27.920;2022-08-19T07:54:32;8.57;;;7.32;;
22260;SDS011;11299;43.202;27.920;2022-08-19T07:56:59;10.27;;;7.70;;
22260;SDS011;11299;43.202;27.920;2022-08-19T07:59:25;9.60;;;7.72;;
22260;SDS011;11299;43.202;27.920;2022-08-19T08:01:51;9.82;;;8.18;;
22260;SDS011;11299;43.202;27.920;2022-08-19T08:04:17;11.48;;;8.05;;
22260;SDS011;11299;43.202;27.920;2022-08-19T08:07:02;9.10;;;8.20;;
22260;SDS011;11299;43.202;27.920;2022-08-19T08:09:48;9.77;;;7.68;;
22260;SDS011;11299;43.202;27.920;2022-08-19T08:12:22;11.98;;;8.27;;
22260;SDS011;11299;43.202;27.920;2022-08-19T08:14:54;12.32;;;7.70;;
22260;SDS011;11299;43.202;27.920;2022-08-19T08:17:24;10.90;;;7.53;;
22260;SDS011;11299;43.202;27.920;2022-08-19T08:19:52;11.02;;;7.40;;
22260;SDS011;11299;43.202;27.920;2022-08-19T08:22:19;11.23;;;7.25;;
22260;SDS011;11299;43.202;27.920;2022-08-19T08:25:05;9.10;;;7.18;;
22260;SDS011;11299;43.202;27.920;2022-08-19T08:27:37;15.85;;;8.18;;
22260;SDS011;11299;43.202;27.920;2022-08-19T08:30:06;9.27;;;7.38;;
22260;SDS011;11299;43.202;27.920;2022-08-19T08:32:36;7.80;;;6.70;;
22260;SDS011;11299;43.202;27.920;2022-08-19T08:35:04;11.02;;;7.10;;
22260;SDS011;11299;43.202;27.920;2022-08-19T08:37:34;11.40;;;6.32;;
22260;SDS011;11299;43.202;27.920;2022-08-19T08:40:08;10.70;;;6.38;;
22260;SDS011;11299;43.202;27.920;2022-08-19T08:42:49;9.55;;;7.40;;
22260;SDS011;11299;43.202;27.920;2022-08-19T08:51:32;12.50;;;7.32;;
22260;SDS011;11299;43.202;27.920;2022-08-19T08:54:04;9.98;;;6.88;;
22260;SDS011;11299;43.202;27.920;2022-08-19T08:56:33;22.93;;;10.13;;
22260;SDS011;11299;43.202;27.920;2022-08-19T08:59:03;10.48;;;7.63;;
22260;SDS011;11299;43.202;27.920;2022-08-19T09:01:33;14.93;;;7.40;;
22260;SDS011;11299;43.202;27.920;2022-08-19T09:04:02;9.60;;;6.70;;
22260;SDS011;11299;43.202;27.920;2022-08-19T09:07:33;12.02;;;6.47;;
22260;SDS011;11299;43.202;27.920;2022-08-19T09:09:46;8.23;;;6.57;;
22260;SDS011;11299;43.202;27.920;2022-08-19T09:15:04;11.10;;;7.20;;
22260;SDS011;11299;43.202;27.920;2022-08-19T09:17:33;10.68;;;6.80;;
22260;SDS011;11299;43.202;27.920;2022-08-19T09:22:34;12.07;;;6.80;;
22260;SDS011;11299;43.202;27.920;2022-08-19T09:25:01;12.05;;;7.30;;
22260;SDS011;11299;43.202;27.920;2022-08-19T09:27:27;11.77;;;6.85;;
22260;SDS011;11299;43.202;27.920;2022-08-19T09:29:54;12.88;;;6.97;;
22260;SDS011;11299;43.202;27.920;2022-08-19T09:32:20;8.85;;;6.40;;
22260;SDS011;11299;43.202;27.920;2022-08-19T09:34:47;13.02;;;7.38;;
22260;SDS011;11299;43.202;27.920;2022-08-19T09:37:13;11.52;;;7.15;;
22260;SDS011;11299;43.202;27.920;2022-08-19T09:39:39;12.32;;;6.65;;
22260;SDS011;11299;43.202;27.920;2022-08-19T09:42:08;8.90;;;6.35;;
22260;SDS011;11299;43.202;27.920;2022-08-19T09:44:41;12.02;;;7.07;;
22260;SDS011;11299;43.202;27.920;2022-08-19T09:47:12;10.70;;;6.88;;
22260;SDS011;11299;43.202;27.920;2022-08-19T09:49:38;12.98;;;7.82;;
22260;SDS011;11299;43.202;27.920;2022-08-19T09:52:04;8.73;;;6.80;;
22260;SDS011;11299;43.202;27.920;2022-08-19T09:54:32;12.88;;;6.72;;
22260;SDS011;11299;43.202;27.920;2022-08-19T09:56:59;9.77;;;6.60;;
22260;SDS011;11299;43.202;27.920;2022-08-19T09:59:28;9.50;;;6.82;;
22260;SDS011;11299;43.202;27.920;2022-08-19T10:01:54;7.95;;;6.45;;
22260;SDS011;11299;43.202;27.920;2022-08-19T10:04:20;8.70;;;6.82;;
22260;SDS011;11299;43.202;27.920;2022-08-19T10:06:47;11.85;;;7.10;;
22260;SDS011;11299;43.202;27.920;2022-08-19T10:09:15;10.50;;;6.97;;
22260;SDS011;11299;43.202;27.920;2022-08-19T10:11:42;13.35;;;7.10;;
22260;SDS011;11299;43.202;27.920;2022-08-19T10:14:11;11.98;;;7.07;;
22260;SDS011;11299;43.202;27.920;2022-08-19T10:16:36;10.23;;;6.93;;
22260;SDS011;11299;43.202;27.920;2022-08-19T10:19:04;8.35;;;6.68;;
22260;SDS011;11299;43.202;27.920;2022-08-19T10:21:31;8.38;;;6.47;;
22260;SDS011;11299;43.202;27.920;2022-08-19T10:23:58;9.63;;;6.43;;
22260;SDS011;11299;43.202;27.920;2022-08-19T10:26:30;9.57;;;6.97;;
22260;SDS011;11299;43.202;27.920;2022-08-19T10:28:58;10.25;;;6.72;;
22260;SDS011;11299;43.202;27.920;2022-08-19T10:31:26;7.50;;;6.80;;
22260;SDS011;11299;43.202;27.920;2022-08-19T10:33:54;13.63;;;6.28;;
22260;SDS011;11299;43.202;27.920;2022-08-19T10:36:23;10.38;;;6.20;;
22260;SDS011;11299;43.202;27.920;2022-08-19T10:38:51;9.57;;;6.28;;
22260;SDS011;11299;43.202;27.920;2022-08-19T10:41:21;8.20;;;6.03;;
22260;SDS011;11299;43.202;27.920;2022-08-19T10:43:50;12.50;;;6.05;;
22260;SDS011;11299;43.202;27.920;2022-08-19T10:46:19;11.93;;;6.85;;
22260;SDS011;11299;43.202;27.920;2022-08-19T10:48:46;8.60;;;7.00;;
22260;SDS011;11299;43.202;27.920;2022-08-19T10:51:12;8.38;;;6.85;;
22260;SDS011;11299;43.202;27.920;2022-08-19T10:53:56;12.02;;;7.03;;
22260;SDS011;11299;43.202;27.920;2022-08-19T10:56:23;11.73;;;7.68;;
22260;SDS011;11299;43.202;27.920;2022-08-19T10:59:07;8.68;;;6.80;;
22260;SDS011;11299;43.202;27.920;2022-08-19T11:01:33;12.57;;;7.03;;
22260;SDS011;11299;43.202;27.920;2022-08-19T11:04:00;10.73;;;7.03;;
22260;SDS011;11299;43.202;27.920;2022-08-19T11:06:27;12.32;;;7.68;;
22260;SDS011;11299;43.202;27.920;2022-08-19T11:08:54;12.82;;;7.63;;
22260;SDS011;11299;43.202;27.920;2022-08-19T11:11:20;10.88;;;7.90;;
22260;SDS011;11299;43.202;27.920;2022-08-19T11:13:48;14.25;;;8.43;;
22260;SDS011;11299;43.202;27.920;2022-08-19T11:16:19;13.70;;;8.23;;
22260;SDS011;11299;43.202;27.920;2022-08-19T11:18:51;10.32;;;8.48;;
22260;SDS011;11299;43.202;27.920;2022-08-19T11:23:44;9.13;;;7.95;;
22260;SDS011;11299;43.202;27.920;2022-08-19T11:26:11;11.38;;;8.23;;
22260;SDS011;11299;43.202;27.920;2022-08-19T11:28:37;13.07;;;9.15;;
22260;SDS011;11299;43.202;27.920;2022-08-19T11:31:04;14.82;;;10.60;;
22260;SDS011;11299;43.202;27.920;2022-08-19T11:33:34;12.75;;;11.02;;
22260;SDS011;11299;43.202;27.920;2022-08-19T11:35:59;15.20;;;10.90;;
22260;SDS011;11299;43.202;27.920;2022-08-19T11:38:26;12.90;;;9.77;;
22260;SDS011;11299;43.202;27.920;2022-08-19T11:40:56;12.65;;;10.68;;
22260;SDS011;11299;43.202;27.920;2022-08-19T11:43:25;11.70;;;10.13;;
22260;SDS011;11299;43.202;27.920;2022-08-19T11:45:52;13.23;;;10.63;;
22260;SDS011;11299;43.202;27.920;2022-08-19T11:48:18;21.38;;;11.80;;
22260;SDS011;11299;43.202;27.920;2022-08-19T11:50:47;13.82;;;11.10;;
22260;SDS011;11299;43.202;27.920;2022-08-19T11:53:14;14.35;;;10.82;;
22260;SDS011;11299;43.202;27.920;2022-08-19T11:55:39;12.63;;;11.13;;
22260;SDS011;11299;43.202;27.920;2022-08-19T11:58:05;15.02;;;11.93;;
22260;SDS011;11299;43.202;27.920;2022-08-19T12:00:33;14.00;;;11.07;;
22260;SDS011;11299;43.202;27.920;2022-08-19T12:03:00;17.48;;;11.40;;
22260;SDS011;11299;43.202;27.920;2022-08-19T12:05:26;12.07;;;10.77;;
22260;SDS011;11299;43.202;27.920;2022-08-19T12:07:52;12.15;;;10.57;;
22260;SDS011;11299;43.202;27.920;2022-08-19T12:10:19;13.63;;;10.38;;
22260;SDS011;11299;43.202;27.920;2022-08-19T12:12:45;15.85;;;9.65;;
22260;SDS011;11299;43.202;27.920;2022-08-19T12:15:11;12.25;;;10.90;;
22260;SDS011;11299;43.202;27.920;2022-08-19T12:17:39;12.93;;;10.70;;
22260;SDS011;11299;43.202;27.920;2022-08-19T12:20:07;12.95;;;11.60;;
22260;SDS011;11299;43.202;27.920;2022-08-19T12:22:36;13.23;;;11.10;;
22260;SDS011;11299;43.202;27.920;2022-08-19T12:25:02;12.38;;;10.60;;
22260;SDS011;11299;43.202;27.920;2022-08-19T12:27:30;12.55;;;9.38;;
22260;SDS011;11299;43.202;27.920;2022-08-19T12:29:56;11.23;;;10.10;;
22260;SDS011;11299;43.202;27.920;2022-08-19T12:32:22;14.35;;;10.68;;
22260;SDS011;11299;43.202;27.920;2022-08-19T12:34:49;11.98;;;10.32;;
22260;SDS011;11299;43.202;27.920;2022-08-19T12:37:15;16.52;;;10.25;;
22260;SDS011;11299;43.202;27.920;2022-08-19T12:39:41;13.25;;;10.82;;
22260;SDS011;11299;43.202;27.920;2022-08-19T12:42:08;13.80;;;10.85;;
22260;SDS011;11299;43.202;27.920;2022-08-19T12:44:36;12.75;;;9.85;;
22260;SDS011;11299;43.202;27.920;2022-08-19T12:47:04;14.50;;;11.25;;
22260;SDS011;11299;43.202;27.920;2022-08-19T12:49:30;14.07;;;9.30;;
22260;SDS011;11299;43.202;27.920;2022-08-19T12:51:59;11.30;;;9.43;;
22260;SDS011;11299;43.202;27.920;2022-08-19T12:54:28;15.80;;;9.57;;
22260;SDS011;11299;43.202;27.920;2022-08-19T12:56:55;18.58;;;10.20;;
22260;SDS011;11299;43.202;27.920;2022-08-19T12:59:25;17.02;;;9.35;;
22260;SDS011;11299;43.202;27.920;2022-08-19T13:01:51;10.70;;;9.50;;
22260;SDS011;11299;43.202;27.920;2022-08-19T13:04:17;13.50;;;9.93;;
22260;SDS011;11299;43.202;27.920;2022-08-19T13:06:43;15.75;;;9.15;;
22260;SDS011;11299;43.202;27.920;2022-08-19T13:09:09;14.90;;;9.55;;
22260;SDS011;11299;43.202;27.920;2022-08-19T13:11:35;13.07;;;9.30;;
22260;SDS011;11299;43.202;27.920;2022-08-19T13:14:02;13.60;;;10.80;;
22260;SDS011;11299;43.202;27.920;2022-08-19T13:16:28;13.77;;;10.70;;
22260;SDS011;11299;43.202;27.920;2022-08-19T13:18:55;11.45;;;9.70;;
22260;SDS011;11299;43.202;27.920;2022-08-19T13:21:23;12.70;;;9.85;;
22260;SDS011;11299;43.202;27.920;2022-08-19T13:23:51;12.32;;;9.80;;
22260;SDS011;11299;43.202;27.920;2022-08-19T13:26:17;12.93;;;10.43;;
22260;SDS011;11299;43.202;27.920;2022-08-19T13:28:43;12.35;;;10.40;;
22260;SDS011;11299;43.202;27.920;2022-08-19T13:31:29;19.65;;;12.38;;
22260;SDS011;11299;43.202;27.920;2022-08-19T13:34:15;13.38;;;11.65;;
22260;SDS011;11299;43.202;27.920;2022-08-19T13:36:42;12.43;;;10.65;;
22260;SDS011;11299;43.202;27.920;2022-08-19T13:39:08;13.35;;;11.00;;
22260;SDS011;11299;43.202;27.920;2022-08-19T13:41:34;17.48;;;11.40;;
22260;SDS011;11299;43.202;27.920;2022-08-19T13:44:01;16.63;;;10.20;;
22260;SDS011;11299;43.202;27.920;2022-08-19T13:46:27;12.18;;;10.98;;
22260;SDS011;11299;43.202;27.920;2022-08-19T13:48:54;12.80;;;11.02;;
22260;SDS011;11299;43.202;27.920;2022-08-19T13:51:21;14.05;;;11.02;;
22260;SDS011;11299;43.202;27.920;2022-08-19T13:53:46;10.85;;;9.63;;
22260;SDS011;11299;43.202;27.920;2022-08-19T13:56:14;21.73;;;12.98;;
22260;SDS011;11299;43.202;27.920;2022-08-19T13:58:41;13.40;;;10.77;;
22260;SDS011;11299;43.202;27.920;2022-08-19T14:01:08;15.63;;;10.57;;
22260;SDS011;11299;43.202;27.920;2022-08-19T14:03:35;17.77;;;9.52;;
22260;SDS011;11299;43.202;27.920;2022-08-19T14:06:01;12.60;;;9.38;;
22260;SDS011;11299;43.202;27.920;2022-08-19T14:08:27;14.77;;;10.50;;
22260;SDS011;11299;43.202;27.920;2022-08-19T14:10:53;11.77;;;8.80;;
22260;SDS011;11299;43.202;27.920;2022-08-19T14:13:21;13.30;;;7.85;;
22260;SDS011;11299;43.202;27.920;2022-08-19T14:15:48;12.07;;;8.20;;
22260;SDS011;11299;43.202;27.920;2022-08-19T14:18:15;12.05;;;8.07;;
22260;SDS011;11299;43.202;27.920;2022-08-19T14:20:43;13.38;;;8.25;;
22260;SDS011;11299;43.202;27.920;2022-08-19T14:23:09;9.77;;;7.60;;
22260;SDS011;11299;43.202;27.920;2022-08-19T14:25:35;9.68;;;7.80;;
22260;SDS011;11299;43.202;27.920;2022-08-19T14:28:01;15.73;;;8.88;;
22260;SDS011;11299;43.202;27.920;2022-08-19T14:30:31;10.50;;;7.78;;
22260;SDS011;11299;43.202;27.920;2022-08-19T14:32:59;12.50;;;7.85;;
22260;SDS011;11299;43.202;27.920;2022-08-19T14:35:26;13.85;;;8.38;;
22260;SDS011;11299;43.202;27.920;2022-08-19T14:37:53;15.05;;;8.70;;
22260;SDS011;11299;43.202;27.920;2022-08-19T14:40:20;9.38;;;8.40;;